sensor_id;sensor_type;location;lat;lon;timestamp;temperature;humidity
57106;DHT22;61482;56.524;21.004;2022-07-29T00:00:01;12.70;99.90
57106;DHT22;61482;56.524;21.004;2022-07-29T00:02:28;12.70;99.90
57106;DHT22;61482;56.524;21.004;2022-07-29T00:04:56;12.80;99.90
57106;DHT22;61482;56.524;21.004;2022-07-29T00:07:23;12.70;99.90
57106;DHT22;61482;56.524;21.004;2022-07-29T00:09:50;12.70;99.90
57106;DHT22;61482;56.524;21.004;2022-07-29T00:12:23;12.70;99.90
57106;DHT22;61482;56.524;21.004;2022-07-29T00:14:55;12.70;99.90
57106;DHT22;61482;56.524;21.004;2022-07-29T00:17:23;12.70;99.90
57106;DHT22;61482;56.524;21.004;2022-07-29T00:19:50;12.70;99.90
57106;DHT22;61482;56.524;21.004;2022-07-29T00:22:18;12.70;99.90
57106;DHT22;61482;56.524;21.004;2022-07-29T00:24:48;12.60;99.90
57106;DHT22;61482;56.524;21.004;2022-07-29T00:27:16;12.60;99.90
57106;DHT22;61482;56.524;21.004;2022-07-29T00:29:43;12.50;99.90
57106;DHT22;61482;56.524;21.004;2022-07-29T00:32:11;12.40;99.90
57106;DHT22;61482;56.524;21.004;2022-07-29T00:34:37;12.40;99.90
57106;DHT22;61482;56.524;21.004;2022-07-29T00:37:23;12.40;99.90
57106;DHT22;61482;56.524;21.004;2022-07-29T00:39:50;12.30;99.90
57106;DHT22;61482;56.524;21.004;2022-07-29T00:42:17;12.30;99.90
57106;DHT22;61482;56.524;21.004;2022-07-29T00:44:44;12.30;99.90
57106;DHT22;61482;56.524;21.004;2022-07-29T00:47:12;12.30;99.90
57106;DHT22;61482;56.524;21.004;2022-07-29T00:49:40;12.30;99.90
57106;DHT22;61482;56.524;21.004;2022-07-29T00:52:08;12.30;99.90
57106;DHT22;61482;56.524;21.004;2022-07-29T00:54:38;12.20;99.90
57106;DHT22;61482;56.524;21.004;2022-07-29T00:57:11;12.20;99.90
57106;DHT22;61482;56.524;21.004;2022-07-29T00:59:39;12.10;99.90
57106;DHT22;61482;56.524;21.004;2022-07-29T01:02:06;12.00;99.90
57106;DHT22;61482;56.524;21.004;2022-07-29T01:04:33;12.00;99.90
57106;DHT22;61482;56.524;21.004;2022-07-29T01:07:04;12.00;99.90
57106;DHT22;61482;56.524;21.004;2022-07-29T01:09:32;11.90;99.90
57106;DHT22;61482;56.524;21.004;2022-07-29T01:12:19;11.90;99.90
57106;DHT22;61482;56.524;21.004;2022-07-29T01:14:49;11.80;99.90
57106;DHT22;61482;56.524;21.004;2022-07-29T01:22:31;11.70;99.90
57106;DHT22;61482;56.524;21.004;2022-07-29T01:25:20;11.70;99.90
57106;DHT22;61482;56.524;21.004;2022-07-29T01:30:29;11.60;99.90
57106;DHT22;61482;56.524;21.004;2022-07-29T01:33:02;11.60;99.90
57106;DHT22;61482;56.524;21.004;2022-07-29T01:35:36;11.60;99.90
57106;DHT22;61482;56.524;21.004;2022-07-29T01:38:15;11.60;99.90
57106;DHT22;61482;56.524;21.004;2022-07-29T01:40:50;11.70;99.90
57106;DHT22;61482;56.524;21.004;2022-07-29T01:43:27;11.70;99.90
57106;DHT22;61482;56.524;21.004;2022-07-29T01:46:02;11.70;99.90
57106;DHT22;61482;56.524;21.004;2022-07-29T01:48:37;11.70;99.90
57106;DHT22;61482;56.524;21.004;2022-07-29T01:51:09;11.60;99.90
57106;DHT22;61482;56.524;21.004;2022-07-29T01:53:54;11.60;99.90
57106;DHT22;61482;56.524;21.004;2022-07-29T01:56:23;11.60;99.90
57106;DHT22;61482;56.524;21.004;2022-07-29T01:58:52;11.60;99.90
57106;DHT22;61482;56.524;21.004;2022-07-29T02:01:21;11.70;99.90
57106;DHT22;61482;56.524;21.004;2022-07-29T02:03:51;11.80;99.90
57106;DHT22;61482;56.524;21.004;2022-07-29T02:06:21;11.90;99.90
57106;DHT22;61482;56.524;21.004;2022-07-29T02:08:50;11.80;99.90
57106;DHT22;61482;56.524;21.004;2022-07-29T02:11:19;11.80;99.90
57106;DHT22;61482;56.524;21.004;2022-07-29T02:13:47;11.70;99.90
57106;DHT22;61482;56.524;21.004;2022-07-29T02:16:16;11.60;99.90
57106;DHT22;61482;56.524;21.004;2022-07-29T02:18:45;11.50;99.90
57106;DHT22;61482;56.524;21.004;2022-07-29T02:21:15;11.40;99.90
57106;DHT22;61482;56.524;21.004;2022-07-29T02:23:46;11.30;99.90
57106;DHT22;61482;56.524;21.004;2022-07-29T02:26:18;11.30;99.90
57106;DHT22;61482;56.524;21.004;2022-07-29T02:28:47;11.20;99.90
57106;DHT22;61482;56.524;21.004;2022-07-29T02:31:16;11.10;99.90
57106;DHT22;61482;56.524;21.004;2022-07-29T02:33:47;11.10;99.90
57106;DHT22;61482;56.524;21.004;2022-07-29T02:36:16;11.00;99.90
57106;DHT22;61482;56.524;21.004;2022-07-29T02:38:43;10.90;99.90
57106;DHT22;61482;56.524;21.004;2022-07-29T02:41:27;10.90;99.90
57106;DHT22;61482;56.524;21.004;2022-07-29T02:44:06;10.90;99.90
57106;DHT22;61482;56.524;21.004;2022-07-29T02:46:37;10.90;99.90
57106;DHT22;61482;56.524;21.004;2022-07-29T02:51:54;10.90;99.90
57106;DHT22;61482;56.524;21.004;2022-07-29T02:54:37;10.90;99.90
57106;DHT22;61482;56.524;21.004;2022-07-29T02:57:31;10.90;99.90
57106;DHT22;61482;56.524;21.004;2022-07-29T03:00:37;10.90;99.90
57106;DHT22;61482;56.524;21.004;2022-07-29T03:03:09;10.80;99.90
57106;DHT22;61482;56.524;21.004;2022-07-29T03:05:37;10.80;99.90
57106;DHT22;61482;56.524;21.004;2022-07-29T03:08:08;10.80;99.90
57106;DHT22;61482;56.524;21.004;2022-07-29T03:10:37;10.80;99.90
57106;DHT22;61482;56.524;21.004;2022-07-29T03:13:06;10.80;99.90
57106;DHT22;61482;56.524;21.004;2022-07-29T03:15:35;10.80;99.90
57106;DHT22;61482;56.524;21.004;2022-07-29T03:18:02;10.90;99.90
57106;DHT22;61482;56.524;21.004;2022-07-29T03:20:31;11.00;99.90
57106;DHT22;61482;56.524;21.004;2022-07-29T03:22:58;11.00;99.90
57106;DHT22;61482;56.524;21.004;2022-07-29T03:25:25;11.00;99.90
57106;DHT22;61482;56.524;21.004;2022-07-29T03:27:53;11.10;99.90
57106;DHT22;61482;56.524;21.004;2022-07-29T03:30:20;11.10;99.90
57106;DHT22;61482;56.524;21.004;2022-07-29T03:32:49;11.10;99.90
57106;DHT22;61482;56.524;21.004;2022-07-29T03:35:21;11.20;99.90
57106;DHT22;61482;56.524;21.004;2022-07-29T03:37:49;11.30;99.90
57106;DHT22;61482;56.524;21.004;2022-07-29T03:40:31;11.40;99.90
57106;DHT22;61482;56.524;21.004;2022-07-29T03:43:02;11.50;99.90
57106;DHT22;61482;56.524;21.004;2022-07-29T03:45:30;11.60;99.90
57106;DHT22;61482;56.524;21.004;2022-07-29T03:48:01;11.60;99.90
57106;DHT22;61482;56.524;21.004;2022-07-29T03:50:30;11.70;99.90
57106;DHT22;61482;56.524;21.004;2022-07-29T03:52:57;11.80;99.90
57106;DHT22;61482;56.524;21.004;2022-07-29T03:55:26;11.90;99.90
57106;DHT22;61482;56.524;21.004;2022-07-29T03:57:55;11.90;99.90
57106;DHT22;61482;56.524;21.004;2022-07-29T04:00:24;12.00;99.90
57106;DHT22;61482;56.524;21.004;2022-07-29T04:02:52;12.10;99.90
57106;DHT22;61482;56.524;21.004;2022-07-29T04:05:19;12.20;99.90
57106;DHT22;61482;56.524;21.004;2022-07-29T04:07:47;12.40;99.90
57106;DHT22;61482;56.524;21.004;2022-07-29T04:10:15;12.50;99.90
57106;DHT22;61482;56.524;21.004;2022-07-29T04:12:58;12.60;99.90
57106;DHT22;61482;56.524;21.004;2022-07-29T04:15:26;12.70;99.90
57106;DHT22;61482;56.524;21.004;2022-07-29T04:17:57;12.90;99.90
57106;DHT22;61482;56.524;21.004;2022-07-29T04:20:24;13.00;99.90
57106;DHT22;61482;56.524;21.004;2022-07-29T04:22:52;13.20;99.90
57106;DHT22;61482;56.524;21.004;2022-07-29T04:25:19;13.30;99.90
57106;DHT22;61482;56.524;21.004;2022-07-29T04:27:46;13.60;99.90
57106;DHT22;61482;56.524;21.004;2022-07-29T04:30:35;13.80;99.90
57106;DHT22;61482;56.524;21.004;2022-07-29T04:33:04;14.10;99.90
57106;DHT22;61482;56.524;21.004;2022-07-29T04:35:35;14.40;99.90
57106;DHT22;61482;56.524;21.004;2022-07-29T04:38:09;14.80;99.90
57106;DHT22;61482;56.524;21.004;2022-07-29T04:40:42;15.10;99.90
57106;DHT22;61482;56.524;21.004;2022-07-29T04:43:09;15.50;99.90
57106;DHT22;61482;56.524;21.004;2022-07-29T04:45:38;16.00;99.90
57106;DHT22;61482;56.524;21.004;2022-07-29T04:48:06;16.90;99.90
57106;DHT22;61482;56.524;21.004;2022-07-29T04:50:33;18.10;99.90
57106;DHT22;61482;56.524;21.004;2022-07-29T04:53:00;19.20;99.90
57106;DHT22;61482;56.524;21.004;2022-07-29T04:55:28;20.00;99.90
57106;DHT22;61482;56.524;21.004;2022-07-29T04:57:54;21.00;99.90
57106;DHT22;61482;56.524;21.004;2022-07-29T05:00:21;21.80;99.90
57106;DHT22;61482;56.524;21.004;2022-07-29T05:02:59;22.50;99.90
57106;DHT22;61482;56.524;21.004;2022-07-29T05:05:26;23.10;99.90
57106;DHT22;61482;56.524;21.004;2022-07-29T05:07:53;23.80;99.90
57106;DHT22;61482;56.524;21.004;2022-07-29T05:10:20;23.70;99.50
57106;DHT22;61482;56.524;21.004;2022-07-29T05:12:47;23.00;99.80
57106;DHT22;61482;56.524;21.004;2022-07-29T05:15:15;22.60;99.50
57106;DHT22;61482;56.524;21.004;2022-07-29T05:17:42;22.00;99.90
57106;DHT22;61482;56.524;21.004;2022-07-29T05:20:09;21.30;99.90
57106;DHT22;61482;56.524;21.004;2022-07-29T05:22:36;20.30;99.90
57106;DHT22;61482;56.524;21.004;2022-07-29T05:25:03;19.70;99.90
57106;DHT22;61482;56.524;21.004;2022-07-29T05:27:35;19.10;99.90
57106;DHT22;61482;56.524;21.004;2022-07-29T05:30:03;18.40;99.90
57106;DHT22;61482;56.524;21.004;2022-07-29T05:32:30;18.10;99.90
57106;DHT22;61482;56.524;21.004;2022-07-29T05:34:58;17.80;99.90
57106;DHT22;61482;56.524;21.004;2022-07-29T05:37:25;17.50;99.90
57106;DHT22;61482;56.524;21.004;2022-07-29T05:39:52;17.40;99.90
57106;DHT22;61482;56.524;21.004;2022-07-29T05:42:23;17.30;99.90
57106;DHT22;61482;56.524;21.004;2022-07-29T05:44:51;17.30;99.90
57106;DHT22;61482;56.524;21.004;2022-07-29T05:47:18;17.30;99.90
57106;DHT22;61482;56.524;21.004;2022-07-29T05:49:46;17.30;99.90
57106;DHT22;61482;56.524;21.004;2022-07-29T05:52:13;17.30;99.90
57106;DHT22;61482;56.524;21.004;2022-07-29T05:54:40;17.30;99.90
57106;DHT22;61482;56.524;21.004;2022-07-29T05:57:07;17.30;99.90
57106;DHT22;61482;56.524;21.004;2022-07-29T05:59:38;17.40;99.90
57106;DHT22;61482;56.524;21.004;2022-07-29T06:02:05;17.50;99.90
57106;DHT22;61482;56.524;21.004;2022-07-29T06:04:32;17.50;99.90
57106;DHT22;61482;56.524;21.004;2022-07-29T06:07:00;17.60;99.90
57106;DHT22;61482;56.524;21.004;2022-07-29T06:09:28;17.80;99.90
57106;DHT22;61482;56.524;21.004;2022-07-29T06:11:56;17.80;99.90
57106;DHT22;61482;56.524;21.004;2022-07-29T06:14:26;17.60;99.90
57106;DHT22;61482;56.524;21.004;2022-07-29T06:16:53;17.50;99.90
57106;DHT22;61482;56.524;21.004;2022-07-29T06:19:20;17.30;99.90
57106;DHT22;61482;56.524;21.004;2022-07-29T06:21:48;17.20;99.90
57106;DHT22;61482;56.524;21.004;2022-07-29T06:24:15;16.90;99.90
57106;DHT22;61482;56.524;21.004;2022-07-29T06:26:43;16.90;99.90
57106;DHT22;61482;56.524;21.004;2022-07-29T06:29:11;16.80;99.90
57106;DHT22;61482;56.524;21.004;2022-07-29T06:31:38;16.70;99.90
57106;DHT22;61482;56.524;21.004;2022-07-29T06:34:06;16.60;99.90
57106;DHT22;61482;56.524;21.004;2022-07-29T06:36:37;16.60;99.90
57106;DHT22;61482;56.524;21.004;2022-07-29T06:39:07;16.80;99.90
57106;DHT22;61482;56.524;21.004;2022-07-29T06:41:37;16.80;99.90
57106;DHT22;61482;56.524;21.004;2022-07-29T06:44:04;16.70;99.90
57106;DHT22;61482;56.524;21.004;2022-07-29T06:46:31;16.70;99.90
57106;DHT22;61482;56.524;21.004;2022-07-29T06:48:59;16.60;99.90
57106;DHT22;61482;56.524;21.004;2022-07-29T06:51:28;16.50;99.90
57106;DHT22;61482;56.524;21.004;2022-07-29T06:53:56;16.60;99.90
57106;DHT22;61482;56.524;21.004;2022-07-29T06:56:33;16.90;99.90
57106;DHT22;61482;56.524;21.004;2022-07-29T06:59:07;17.50;99.90
57106;DHT22;61482;56.524;21.004;2022-07-29T07:01:35;18.00;99.90
57106;DHT22;61482;56.524;21.004;2022-07-29T07:04:03;18.20;99.90
57106;DHT22;61482;56.524;21.004;2022-07-29T07:06:30;18.50;99.90
57106;DHT22;61482;56.524;21.004;2022-07-29T07:08:57;19.50;99.90
57106;DHT22;61482;56.524;21.004;2022-07-29T07:11:27;19.90;99.90
57106;DHT22;61482;56.524;21.004;2022-07-29T07:13:54;20.80;99.90
57106;DHT22;61482;56.524;21.004;2022-07-29T07:16:28;21.90;99.70
57106;DHT22;61482;56.524;21.004;2022-07-29T07:18:55;22.10;99.30
57106;DHT22;61482;56.524;21.004;2022-07-29T07:21:22;22.70;97.90
57106;DHT22;61482;56.524;21.004;2022-07-29T07:23:49;22.70;97.00
57106;DHT22;61482;56.524;21.004;2022-07-29T07:26:16;22.80;97.00
57106;DHT22;61482;56.524;21.004;2022-07-29T07:28:43;22.30;97.00
57106;DHT22;61482;56.524;21.004;2022-07-29T07:31:11;22.70;97.10
57106;DHT22;61482;56.524;21.004;2022-07-29T07:33:38;22.90;97.10
57106;DHT22;61482;56.524;21.004;2022-07-29T07:36:05;23.20;96.50
57106;DHT22;61482;56.524;21.004;2022-07-29T07:38:32;24.20;95.30
57106;DHT22;61482;56.524;21.004;2022-07-29T07:41:00;24.50;93.80
57106;DHT22;61482;56.524;21.004;2022-07-29T07:43:27;24.70;93.20
57106;DHT22;61482;56.524;21.004;2022-07-29T07:45:54;24.40;92.80
57106;DHT22;61482;56.524;21.004;2022-07-29T07:48:21;23.40;93.90
57106;DHT22;61482;56.524;21.004;2022-07-29T07:50:48;23.40;93.70
57106;DHT22;61482;56.524;21.004;2022-07-29T07:53:16;24.10;94.00
57106;DHT22;61482;56.524;21.004;2022-07-29T07:55:44;24.00;93.00
57106;DHT22;61482;56.524;21.004;2022-07-29T07:58:31;24.30;92.40
57106;DHT22;61482;56.524;21.004;2022-07-29T08:00:58;23.80;92.90
57106;DHT22;61482;56.524;21.004;2022-07-29T08:03:25;23.80;93.70
57106;DHT22;61482;56.524;21.004;2022-07-29T08:05:52;24.00;93.90
57106;DHT22;61482;56.524;21.004;2022-07-29T08:08:21;25.10;92.60
57106;DHT22;61482;56.524;21.004;2022-07-29T08:10:48;24.60;92.70
57106;DHT22;61482;56.524;21.004;2022-07-29T08:13:25;25.10;91.40
57106;DHT22;61482;56.524;21.004;2022-07-29T08:15:54;24.70;91.90
57106;DHT22;61482;56.524;21.004;2022-07-29T08:18:27;24.40;92.00
57106;DHT22;61482;56.524;21.004;2022-07-29T08:20:55;24.90;91.70
57106;DHT22;61482;56.524;21.004;2022-07-29T08:23:22;25.30;91.10
57106;DHT22;61482;56.524;21.004;2022-07-29T08:25:51;25.30;90.20
57106;DHT22;61482;56.524;21.004;2022-07-29T08:28:20;25.50;90.60
57106;DHT22;61482;56.524;21.004;2022-07-29T08:30:51;24.70;90.40
57106;DHT22;61482;56.524;21.004;2022-07-29T08:33:18;25.20;90.90
57106;DHT22;61482;56.524;21.004;2022-07-29T08:35:45;25.90;89.40
57106;DHT22;61482;56.524;21.004;2022-07-29T08:38:13;25.30;89.80
57106;DHT22;61482;56.524;21.004;2022-07-29T08:40:40;24.20;91.20
57106;DHT22;61482;56.524;21.004;2022-07-29T08:43:08;24.60;91.20
57106;DHT22;61482;56.524;21.004;2022-07-29T08:45:46;24.00;91.40
57106;DHT22;61482;56.524;21.004;2022-07-29T08:48:19;24.60;91.50
57106;DHT22;61482;56.524;21.004;2022-07-29T08:50:49;24.70;90.80
57106;DHT22;61482;56.524;21.004;2022-07-29T08:53:19;24.80;90.70
57106;DHT22;61482;56.524;21.004;2022-07-29T08:55:47;24.00;91.80
57106;DHT22;61482;56.524;21.004;2022-07-29T08:58:15;24.60;90.80
57106;DHT22;61482;56.524;21.004;2022-07-29T09:00:50;24.70;91.10
57106;DHT22;61482;56.524;21.004;2022-07-29T09:03:20;24.80;92.10
57106;DHT22;61482;56.524;21.004;2022-07-29T09:05:49;24.80;91.60
57106;DHT22;61482;56.524;21.004;2022-07-29T09:08:17;25.30;89.90
57106;DHT22;61482;56.524;21.004;2022-07-29T09:10:45;25.60;89.40
57106;DHT22;61482;56.524;21.004;2022-07-29T09:13:12;25.50;90.00
57106;DHT22;61482;56.524;21.004;2022-07-29T09:15:39;25.30;89.10
57106;DHT22;61482;56.524;21.004;2022-07-29T09:18:06;24.70;90.00
57106;DHT22;61482;56.524;21.004;2022-07-29T09:20:51;24.90;90.10
57106;DHT22;61482;56.524;21.004;2022-07-29T09:23:37;25.00;89.00
57106;DHT22;61482;56.524;21.004;2022-07-29T09:26:06;24.00;90.30
57106;DHT22;61482;56.524;21.004;2022-07-29T09:28:33;24.00;91.60
57106;DHT22;61482;56.524;21.004;2022-07-29T09:31:00;24.40;91.20
57106;DHT22;61482;56.524;21.004;2022-07-29T09:33:33;24.70;90.60
57106;DHT22;61482;56.524;21.004;2022-07-29T09:36:07;24.00;89.80
57106;DHT22;61482;56.524;21.004;2022-07-29T09:38:35;25.00;89.40
57106;DHT22;61482;56.524;21.004;2022-07-29T09:41:04;25.30;87.10
57106;DHT22;61482;56.524;21.004;2022-07-29T09:43:33;24.80;88.90
57106;DHT22;61482;56.524;21.004;2022-07-29T09:46:11;25.40;88.90
57106;DHT22;61482;56.524;21.004;2022-07-29T09:48:38;25.30;88.70
57106;DHT22;61482;56.524;21.004;2022-07-29T09:51:19;25.30;89.10
57106;DHT22;61482;56.524;21.004;2022-07-29T09:53:55;26.40;87.40
57106;DHT22;61482;56.524;21.004;2022-07-29T09:56:39;26.40;85.90
57106;DHT22;61482;56.524;21.004;2022-07-29T09:59:07;26.00;86.90
57106;DHT22;61482;56.524;21.004;2022-07-29T10:01:34;26.00;85.40
57106;DHT22;61482;56.524;21.004;2022-07-29T10:04:02;26.60;86.00
57106;DHT22;61482;56.524;21.004;2022-07-29T10:06:29;25.90;85.80
57106;DHT22;61482;56.524;21.004;2022-07-29T10:09:10;25.60;86.00
57106;DHT22;61482;56.524;21.004;2022-07-29T10:11:37;25.60;86.80
57106;DHT22;61482;56.524;21.004;2022-07-29T10:14:22;25.40;85.50
57106;DHT22;61482;56.524;21.004;2022-07-29T10:16:49;26.10;85.60
57106;DHT22;61482;56.524;21.004;2022-07-29T10:19:17;26.00;86.10
57106;DHT22;61482;56.524;21.004;2022-07-29T10:21:44;26.20;84.30
57106;DHT22;61482;56.524;21.004;2022-07-29T10:24:11;26.10;84.80
57106;DHT22;61482;56.524;21.004;2022-07-29T10:26:41;26.10;84.70
57106;DHT22;61482;56.524;21.004;2022-07-29T10:29:08;26.40;82.50
57106;DHT22;61482;56.524;21.004;2022-07-29T10:31:49;25.70;85.20
57106;DHT22;61482;56.524;21.004;2022-07-29T10:34:36;25.70;85.40
57106;DHT22;61482;56.524;21.004;2022-07-29T10:37:37;25.70;85.50
57106;DHT22;61482;56.524;21.004;2022-07-29T10:40:22;25.90;83.90
57106;DHT22;61482;56.524;21.004;2022-07-29T10:43:37;25.80;86.30
57106;DHT22;61482;56.524;21.004;2022-07-29T10:46:07;26.50;83.10
57106;DHT22;61482;56.524;21.004;2022-07-29T10:54:18;25.90;85.30
57106;DHT22;61482;56.524;21.004;2022-07-29T10:56:47;25.80;83.10
57106;DHT22;61482;56.524;21.004;2022-07-29T11:05:17;25.40;84.30
57106;DHT22;61482;56.524;21.004;2022-07-29T11:08:18;26.00;83.70
57106;DHT22;61482;56.524;21.004;2022-07-29T11:16:12;26.30;82.90
57106;DHT22;61482;56.524;21.004;2022-07-29T11:21:39;26.20;82.10
57106;DHT22;61482;56.524;21.004;2022-07-29T11:24:28;26.30;81.70
57106;DHT22;61482;56.524;21.004;2022-07-29T11:29:59;26.20;84.60
57106;DHT22;61482;56.524;21.004;2022-07-29T11:32:37;26.40;81.60
57106;DHT22;61482;56.524;21.004;2022-07-29T11:38:22;26.00;80.60
57106;DHT22;61482;56.524;21.004;2022-07-29T11:40:31;26.40;81.00
57106;DHT22;61482;56.524;21.004;2022-07-29T11:42:58;26.30;81.80
57106;DHT22;61482;56.524;21.004;2022-07-29T11:45:27;26.60;80.90
57106;DHT22;61482;56.524;21.004;2022-07-29T11:48:18;26.30;81.30
57106;DHT22;61482;56.524;21.004;2022-07-29T11:50:57;25.80;82.00
57106;DHT22;61482;56.524;21.004;2022-07-29T11:53:25;26.40;82.20
57106;DHT22;61482;56.524;21.004;2022-07-29T11:55:59;26.00;81.40
57106;DHT22;61482;56.524;21.004;2022-07-29T11:58:27;25.90;82.00
57106;DHT22;61482;56.524;21.004;2022-07-29T12:00:55;26.40;81.70
57106;DHT22;61482;56.524;21.004;2022-07-29T12:03:25;26.60;80.80
57106;DHT22;61482;56.524;21.004;2022-07-29T12:06:01;26.40;79.90
57106;DHT22;61482;56.524;21.004;2022-07-29T12:08:29;26.00;81.00
57106;DHT22;61482;56.524;21.004;2022-07-29T12:10:57;25.90;80.50
57106;DHT22;61482;56.524;21.004;2022-07-29T12:13:24;26.00;80.50
57106;DHT22;61482;56.524;21.004;2022-07-29T12:16:03;25.00;82.80
57106;DHT22;61482;56.524;21.004;2022-07-29T12:18:31;24.70;84.30
57106;DHT22;61482;56.524;21.004;2022-07-29T12:21:02;24.70;84.80
57106;DHT22;61482;56.524;21.004;2022-07-29T12:23:33;24.80;83.40
57106;DHT22;61482;56.524;21.004;2022-07-29T12:26:04;24.70;83.50
57106;DHT22;61482;56.524;21.004;2022-07-29T12:28:37;25.60;81.60
57106;DHT22;61482;56.524;21.004;2022-07-29T12:31:05;24.90;82.20
57106;DHT22;61482;56.524;21.004;2022-07-29T12:33:34;25.30;80.80
57106;DHT22;61482;56.524;21.004;2022-07-29T12:36:02;24.80;82.00
57106;DHT22;61482;56.524;21.004;2022-07-29T12:38:40;24.50;83.60
57106;DHT22;61482;56.524;21.004;2022-07-29T12:41:07;23.60;86.20
57106;DHT22;61482;56.524;21.004;2022-07-29T12:43:34;23.10;88.20
57106;DHT22;61482;56.524;21.004;2022-07-29T12:46:13;23.40;87.80
57106;DHT22;61482;56.524;21.004;2022-07-29T12:48:42;23.50;87.00
57106;DHT22;61482;56.524;21.004;2022-07-29T12:51:11;22.90;87.00
57106;DHT22;61482;56.524;21.004;2022-07-29T12:53:41;22.30;90.30
57106;DHT22;61482;56.524;21.004;2022-07-29T12:56:16;22.00;89.50
57106;DHT22;61482;56.524;21.004;2022-07-29T12:59:31;22.00;90.20
57106;DHT22;61482;56.524;21.004;2022-07-29T13:01:58;21.90;89.20
57106;DHT22;61482;56.524;21.004;2022-07-29T13:04:31;21.70;90.40
57106;DHT22;61482;56.524;21.004;2022-07-29T13:07:03;21.80;90.30
57106;DHT22;61482;56.524;21.004;2022-07-29T13:09:43;21.70;90.30
57106;DHT22;61482;56.524;21.004;2022-07-29T13:12:14;21.40;91.30
57106;DHT22;61482;56.524;21.004;2022-07-29T13:14:43;21.40;91.40
57106;DHT22;61482;56.524;21.004;2022-07-29T13:17:18;21.40;91.00
57106;DHT22;61482;56.524;21.004;2022-07-29T13:20:06;21.70;90.60
57106;DHT22;61482;56.524;21.004;2022-07-29T13:22:35;21.50;91.30
57106;DHT22;61482;56.524;21.004;2022-07-29T13:25:02;21.70;91.10
57106;DHT22;61482;56.524;21.004;2022-07-29T13:27:31;21.90;90.20
57106;DHT22;61482;56.524;21.004;2022-07-29T13:30:00;22.40;90.50
57106;DHT22;61482;56.524;21.004;2022-07-29T13:32:30;23.00;87.10
57106;DHT22;61482;56.524;21.004;2022-07-29T13:35:01;23.10;87.20
57106;DHT22;61482;56.524;21.004;2022-07-29T13:37:32;22.70;89.30
57106;DHT22;61482;56.524;21.004;2022-07-29T13:40:02;22.30;89.30
57106;DHT22;61482;56.524;21.004;2022-07-29T13:42:31;22.20;88.30
57106;DHT22;61482;56.524;21.004;2022-07-29T13:44:58;22.20;89.30
57106;DHT22;61482;56.524;21.004;2022-07-29T13:47:26;21.80;89.90
57106;DHT22;61482;56.524;21.004;2022-07-29T13:49:59;22.00;90.30
57106;DHT22;61482;56.524;21.004;2022-07-29T13:52:28;21.90;90.10
57106;DHT22;61482;56.524;21.004;2022-07-29T13:55:27;21.80;90.10
57106;DHT22;61482;56.524;21.004;2022-07-29T13:57:54;22.10;89.80
57106;DHT22;61482;56.524;21.004;2022-07-29T14:00:22;22.60;90.10
57106;DHT22;61482;56.524;21.004;2022-07-29T14:02:53;22.30;89.80
57106;DHT22;61482;56.524;21.004;2022-07-29T14:05:20;22.50;89.40
57106;DHT22;61482;56.524;21.004;2022-07-29T14:07:52;22.20;88.80
57106;DHT22;61482;56.524;21.004;2022-07-29T14:10:19;22.70;86.50
57106;DHT22;61482;56.524;21.004;2022-07-29T14:12:47;23.70;85.40
57106;DHT22;61482;56.524;21.004;2022-07-29T14:15:15;23.90;86.50
57106;DHT22;61482;56.524;21.004;2022-07-29T14:17:42;23.90;84.80
57106;DHT22;61482;56.524;21.004;2022-07-29T14:20:09;23.70;84.40
57106;DHT22;61482;56.524;21.004;2022-07-29T14:22:37;23.50;84.40
57106;DHT22;61482;56.524;21.004;2022-07-29T14:25:08;23.50;85.70
57106;DHT22;61482;56.524;21.004;2022-07-29T14:27:40;22.80;86.70
57106;DHT22;61482;56.524;21.004;2022-07-29T14:30:09;22.50;87.90
57106;DHT22;61482;56.524;21.004;2022-07-29T14:32:36;22.20;87.70
57106;DHT22;61482;56.524;21.004;2022-07-29T14:35:05;22.30;88.70
57106;DHT22;61482;56.524;21.004;2022-07-29T14:37:33;22.60;88.00
57106;DHT22;61482;56.524;21.004;2022-07-29T14:40:06;22.80;87.00
57106;DHT22;61482;56.524;21.004;2022-07-29T14:42:34;22.50;87.70
57106;DHT22;61482;56.524;21.004;2022-07-29T14:45:01;22.50;89.10
57106;DHT22;61482;56.524;21.004;2022-07-29T14:47:28;22.50;88.70
57106;DHT22;61482;56.524;21.004;2022-07-29T14:49:55;22.80;87.60
57106;DHT22;61482;56.524;21.004;2022-07-29T14:52:22;23.40;86.80
57106;DHT22;61482;56.524;21.004;2022-07-29T14:54:49;23.20;85.70
57106;DHT22;61482;56.524;21.004;2022-07-29T14:57:16;23.50;85.00
57106;DHT22;61482;56.524;21.004;2022-07-29T14:59:43;23.80;83.50
57106;DHT22;61482;56.524;21.004;2022-07-29T15:02:10;23.30;84.90
57106;DHT22;61482;56.524;21.004;2022-07-29T15:04:38;23.80;84.40
57106;DHT22;61482;56.524;21.004;2022-07-29T15:07:06;24.10;84.70
57106;DHT22;61482;56.524;21.004;2022-07-29T15:09:33;23.40;86.60
57106;DHT22;61482;56.524;21.004;2022-07-29T15:12:08;23.60;84.60
57106;DHT22;61482;56.524;21.004;2022-07-29T15:14:37;23.80;85.90
57106;DHT22;61482;56.524;21.004;2022-07-29T15:17:04;24.00;83.60
57106;DHT22;61482;56.524;21.004;2022-07-29T15:19:31;23.50;84.40
57106;DHT22;61482;56.524;21.004;2022-07-29T15:21:58;23.40;85.60
57106;DHT22;61482;56.524;21.004;2022-07-29T15:24:26;22.90;87.90
57106;DHT22;61482;56.524;21.004;2022-07-29T15:26:53;23.00;87.30
57106;DHT22;61482;56.524;21.004;2022-07-29T15:29:20;22.90;87.90
57106;DHT22;61482;56.524;21.004;2022-07-29T15:31:48;23.20;87.40
57106;DHT22;61482;56.524;21.004;2022-07-29T15:34:15;23.10;86.80
57106;DHT22;61482;56.524;21.004;2022-07-29T15:36:42;22.70;87.90
57106;DHT22;61482;56.524;21.004;2022-07-29T15:39:19;21.80;89.60
57106;DHT22;61482;56.524;21.004;2022-07-29T15:41:47;21.30;90.90
57106;DHT22;61482;56.524;21.004;2022-07-29T15:44:14;20.80;92.10
57106;DHT22;61482;56.524;21.004;2022-07-29T15:46:41;20.60;92.20
57106;DHT22;61482;56.524;21.004;2022-07-29T15:49:28;20.40;92.60
57106;DHT22;61482;56.524;21.004;2022-07-29T15:52:16;20.20;92.10
57106;DHT22;61482;56.524;21.004;2022-07-29T15:54:51;20.10;93.10
57106;DHT22;61482;56.524;21.004;2022-07-29T15:57:18;20.00;93.60
57106;DHT22;61482;56.524;21.004;2022-07-29T15:59:45;19.90;93.70
57106;DHT22;61482;56.524;21.004;2022-07-29T16:02:12;20.00;94.30
57106;DHT22;61482;56.524;21.004;2022-07-29T16:04:39;20.00;94.20
57106;DHT22;61482;56.524;21.004;2022-07-29T16:07:06;19.90;94.50
57106;DHT22;61482;56.524;21.004;2022-07-29T16:09:34;19.80;94.30
57106;DHT22;61482;56.524;21.004;2022-07-29T16:12:02;19.80;94.80